^^
Meteo Knjazevac Station Historical Data
Daily Summary for February 12, 2021 Units:  Both    English   Metric
Daily Weekly Monthly Yearly Custom
  High: Low: Average:
Temperature: 86.7 °F /  30.4 °C 44.2 °F /  6.8 °C 64.7 °F /  18.2 °C
Dew Point: 54.9 °F /  12.7 °C 40 °F /  4.4 °C 48 °F /  8.9 °C
Humidity: 88% 33% 59%
Wind Speed: 8mph /  12.9km/h - 1.4mph /  2.3km/h
Wind Gust: 14mph /  22.5km/h - -
Wind- - SW
Pressure: 30.09 in /  1018.8 hPa 29.98 in /  1015.1 hPa -
Precipitation: 0.00 in /  0 mm    
Historical Graphs
 
 
Tabular Data for February 12, 2021
Time Temperature Dew Point Pressure Wind Wind Speed Wind Gust Humidity Rainfall Rate (Hourly) solar Conditions
00:00 55 °F /  12.8 °C 45 °F /  7.2 °C 30.07in /  1018.2hPa Calm   2mph /  3.2km/h 69% 0.00in /  0mm 0 W/m2
00:10 54.1 °F /  12.3 °C 44.2 °F /  6.8 °C 30.07in /  1018.2hPa WNW 1mph /  1.6km/h 2mph /  3.2km/h 69% 0.00in /  0mm 0 W/m2
00:20 53.4 °F /  11.9 °C 44.2 °F /  6.8 °C 30.07in /  1018.2hPa West 2mph /  3.2km/h 4mph /  6.4km/h 71% 0.00in /  0mm 0 W/m2
00:30 53.2 °F /  11.8 °C 44.4 °F /  6.9 °C 30.07in /  1018.2hPa NW 1mph /  1.6km/h 4mph /  6.4km/h 72% 0.00in /  0mm 0 W/m2
00:40 52.9 °F /  11.6 °C 44.1 °F /  6.7 °C 30.07in /  1018.2hPa Calm   3mph /  4.8km/h 72% 0.00in /  0mm 0 W/m2
00:50 52.5 °F /  11.4 °C 44.1 °F /  6.7 °C 30.07in /  1018.2hPa NW 1mph /  1.6km/h 2mph /  3.2km/h 73% 0.00in /  0mm 0 W/m2
01:00 52.2 °F /  11.2 °C 43.8 °F /  6.6 °C 30.07in /  1018.2hPa NW 1mph /  1.6km/h 3mph /  4.8km/h 73% 0.00in /  0mm 0 W/m2
01:10 51.9 °F /  11.1 °C 43.9 °F /  6.6 °C 30.07in /  1018.2hPa West 1mph /  1.6km/h 3mph /  4.8km/h 74% 0.00in /  0mm 0 W/m2
01:20 51.4 °F /  10.8 °C 43.4 °F /  6.3 °C 30.07in /  1018.2hPa NW 1mph /  1.6km/h 3mph /  4.8km/h 74% 0.00in /  0mm 0 W/m2
01:30 51.1 °F /  10.6 °C 43.1 °F /  6.2 °C 30.07in /  1018.2hPa Calm   2mph /  3.2km/h 74% 0.00in /  0mm 0 W/m2
01:40 50.7 °F /  10.4 °C 43.1 °F /  6.2 °C 30.07in /  1018.2hPa Calm   1mph /  1.6km/h 75% 0.00in /  0mm 0 W/m2
01:50 50.2 °F /  10.1 °C 42.9 °F /  6.1 °C 30.07in /  1018.2hPa Calm   2mph /  3.2km/h 76% 0.00in /  0mm 0 W/m2
02:00 50 °F /  10 °C 43.1 °F /  6.2 °C 30.07in /  1018.2hPa NNW 1mph /  1.6km/h 2mph /  3.2km/h 77% 0.00in /  0mm 0 W/m2
02:10 49.6 °F /  9.8 °C 42.6 °F /  5.9 °C 30.07in /  1018.2hPa Calm   2mph /  3.2km/h 77% 0.00in /  0mm 0 W/m2
02:20 49 °F /  9.4 °C 42.1 °F /  5.6 °C 30.07in /  1018.2hPa WNW 1mph /  1.6km/h 2mph /  3.2km/h 77% 0.00in /  0mm 0 W/m2
02:30 48.6 °F /  9.2 °C 42 °F /  5.6 °C 30.08in /  1018.5hPa West 2mph /  3.2km/h 3mph /  4.8km/h 78% 0.00in /  0mm 0 W/m2
02:40 48.6 °F /  9.2 °C 42.3 °F /  5.7 °C 30.08in /  1018.5hPa West 1mph /  1.6km/h 3mph /  4.8km/h 79% 0.00in /  0mm 0 W/m2
02:50 48.2 °F /  9 °C 42 °F /  5.6 °C 30.07in /  1018.2hPa Calm   2mph /  3.2km/h 79% 0.00in /  0mm 0 W/m2
03:00 47.8 °F /  8.8 °C 41.6 °F /  5.3 °C 30.07in /  1018.2hPa NW 1mph /  1.6km/h 2mph /  3.2km/h 79% 0.00in /  0mm 0 W/m2
03:10 47.5 °F /  8.6 °C 41.6 °F /  5.3 °C 30.07in /  1018.2hPa NW 1mph /  1.6km/h 2mph /  3.2km/h 80% 0.00in /  0mm 0 W/m2
03:20 47.1 °F /  8.4 °C 41.3 °F /  5.2 °C 30.07in /  1018.2hPa NW 1mph /  1.6km/h 3mph /  4.8km/h 80% 0.00in /  0mm 0 W/m2
03:30 47.1 °F /  8.4 °C 41.3 °F /  5.2 °C 30.07in /  1018.2hPa Calm   1mph /  1.6km/h 80% 0.00in /  0mm 0 W/m2
03:40 46.9 °F /  8.3 °C 41.1 °F /  5.1 °C 30.07in /  1018.2hPa West 1mph /  1.6km/h 2mph /  3.2km/h 80% 0.00in /  0mm 0 W/m2
03:50 46.8 °F /  8.2 °C 41.2 °F /  5.1 °C 30.07in /  1018.2hPa WNW 1mph /  1.6km/h 2mph /  3.2km/h 81% 0.00in /  0mm 0 W/m2
04:00 46.4 °F /  8 °C 40.9 °F /  4.9 °C 30.08in /  1018.5hPa Calm   1mph /  1.6km/h 81% 0.00in /  0mm 0 W/m2
04:10 46.2 °F /  7.9 °C 41.3 °F /  5.2 °C 30.07in /  1018.2hPa Calm   2mph /  3.2km/h 83% 0.00in /  0mm 0 W/m2
04:20 46 °F /  7.8 °C 40.9 °F /  4.9 °C 30.08in /  1018.5hPa Calm   2mph /  3.2km/h 82% 0.00in /  0mm 0 W/m2
04:30 46 °F /  7.8 °C 41.2 °F /  5.1 °C 30.08in /  1018.5hPa Calm   3mph /  4.8km/h 83% 0.00in /  0mm 0 W/m2
04:40 45.7 °F /  7.6 °C 40.8 °F /  4.9 °C 30.08in /  1018.5hPa NW 1mph /  1.6km/h 2mph /  3.2km/h 83% 0.00in /  0mm 0 W/m2
04:50 45.3 °F /  7.4 °C 40.5 °F /  4.7 °C 30.08in /  1018.5hPa WNW 1mph /  1.6km/h 2mph /  3.2km/h 83% 0.00in /  0mm 0 W/m2
05:00 45.1 °F /  7.3 °C 40.3 °F /  4.6 °C 30.08in /  1018.5hPa WNW 1mph /  1.6km/h 2mph /  3.2km/h 83% 0.00in /  0mm 0 W/m2
05:10 44.9 °F /  7.2 °C 40 °F /  4.4 °C 30.08in /  1018.5hPa West 1mph /  1.6km/h 2mph /  3.2km/h 83% 0.00in /  0mm 0 W/m2
05:20 44.6 °F /  7 °C 40.1 °F /  4.5 °C 30.08in /  1018.5hPa WSW 2mph /  3.2km/h 3mph /  4.8km/h 84% 0.00in /  0mm 0 W/m2
05:30 44.4 °F /  6.9 °C 40.2 °F /  4.6 °C 30.08in /  1018.5hPa WNW 1mph /  1.6km/h 4mph /  6.4km/h 85% 0.00in /  0mm 0 W/m2
05:40 44.6 °F /  7 °C 40.7 °F /  4.8 °C 30.08in /  1018.5hPa WNW 2mph /  3.2km/h 5mph /  8km/h 86% 0.00in /  0mm 0 W/m2
05:50 44.6 °F /  7 °C 40.4 °F /  4.7 °C 30.08in /  1018.5hPa Calm   3mph /  4.8km/h 85% 0.00in /  0mm 0 W/m2
06:00 44.4 °F /  6.9 °C 40.2 °F /  4.6 °C 30.08in /  1018.5hPa NW 1mph /  1.6km/h 2mph /  3.2km/h 85% 0.00in /  0mm 0 W/m2
06:10 44.3 °F /  6.8 °C 40.4 °F /  4.7 °C 30.08in /  1018.5hPa WNW 1mph /  1.6km/h 2mph /  3.2km/h 86% 0.00in /  0mm 5 W/m2
06:20 44.2 °F /  6.8 °C 40.3 °F /  4.6 °C 30.08in /  1018.5hPa WNW 2mph /  3.2km/h 5mph /  8km/h 86% 0.00in /  0mm 12 W/m2
06:30 44.4 °F /  6.9 °C 40.5 °F /  4.7 °C 30.08in /  1018.5hPa Calm   3mph /  4.8km/h 86% 0.00in /  0mm 21 W/m2
06:40 44.2 °F /  6.8 °C 40 °F /  4.4 °C 30.08in /  1018.5hPa NW 1mph /  1.6km/h 2mph /  3.2km/h 85% 0.00in /  0mm 30 W/m2
06:50 44.2 °F /  6.8 °C 40.3 °F /  4.6 °C 30.08in /  1018.5hPa West 1mph /  1.6km/h 2mph /  3.2km/h 86% 0.00in /  0mm 37 W/m2
07:00 44.2 °F /  6.8 °C 40 °F /  4.4 °C 30.09in /  1018.8hPa NW 1mph /  1.6km/h 2mph /  3.2km/h 85% 0.00in /  0mm 77 W/m2
07:10 44.2 °F /  6.8 °C 40.3 °F /  4.6 °C 30.09in /  1018.8hPa Calm   2mph /  3.2km/h 86% 0.00in /  0mm 107 W/m2
07:20 44.6 °F /  7 °C 40.7 °F /  4.8 °C 30.09in /  1018.8hPa NW 1mph /  1.6km/h 2mph /  3.2km/h 86% 0.00in /  0mm 136 W/m2
07:30 45.1 °F /  7.3 °C 41.7 °F /  5.4 °C 30.09in /  1018.8hPa Calm   2mph /  3.2km/h 88% 0.00in /  0mm 166 W/m2
07:40 45.7 °F /  7.6 °C 42.3 °F /  5.7 °C 30.09in /  1018.8hPa NW 1mph /  1.6km/h 2mph /  3.2km/h 88% 0.00in /  0mm 198 W/m2
07:50 46.5 °F /  8.1 °C 43.1 °F /  6.2 °C 30.09in /  1018.8hPa NW 1mph /  1.6km/h 2mph /  3.2km/h 88% 0.00in /  0mm 229 W/m2
08:00 47.2 °F /  8.4 °C 43.9 °F /  6.6 °C 30.09in /  1018.8hPa Calm   2mph /  3.2km/h 88% 0.00in /  0mm 263 W/m2
08:10 48.1 °F /  8.9 °C 44.1 °F /  6.7 °C 30.09in /  1018.8hPa Calm   1mph /  1.6km/h 86% 0.00in /  0mm 296 W/m2
08:20 49 °F /  9.4 °C 44.7 °F /  7.1 °C 30.09in /  1018.8hPa WSW 1mph /  1.6km/h 2mph /  3.2km/h 85% 0.00in /  0mm 330 W/m2
08:30 50.5 °F /  10.3 °C 45.5 °F /  7.5 °C 30.09in /  1018.8hPa Calm   3mph /  4.8km/h 83% 0.00in /  0mm 363 W/m2
08:40 53.1 °F /  11.7 °C 46.8 °F /  8.2 °C 30.08in /  1018.5hPa WNW 1mph /  1.6km/h 2mph /  3.2km/h 79% 0.00in /  0mm 394 W/m2
08:50 55.5 °F /  13.1 °C 47.7 °F /  8.7 °C 30.08in /  1018.5hPa West 1mph /  1.6km/h 2mph /  3.2km/h 75% 0.00in /  0mm 135 W/m2
09:00 57.7 °F /  14.3 °C 48.7 °F /  9.3 °C 30.08in /  1018.5hPa WNW 1mph /  1.6km/h 3mph /  4.8km/h 72% 0.00in /  0mm 292 W/m2
09:10 59.8 °F /  15.4 °C 49.6 °F /  9.8 °C 30.08in /  1018.5hPa WSW 1mph /  1.6km/h 3mph /  4.8km/h 69% 0.00in /  0mm 485 W/m2
09:20 61.8 °F /  16.6 °C 49.9 °F /  9.9 °C 30.08in /  1018.5hPa West 2mph /  3.2km/h 4mph /  6.4km/h 65% 0.00in /  0mm 520 W/m2
09:30 63.6 °F /  17.6 °C 50.8 °F /  10.4 °C 30.08in /  1018.5hPa Calm   3mph /  4.8km/h 63% 0.00in /  0mm 547 W/m2
09:40 65.2 °F /  18.4 °C 51 °F /  10.6 °C 30.08in /  1018.5hPa West 1mph /  1.6km/h 4mph /  6.4km/h 60% 0.00in /  0mm 571 W/m2
09:50 66.9 °F /  19.4 °C 51.6 °F /  10.9 °C 30.08in /  1018.5hPa SW 1mph /  1.6km/h 4mph /  6.4km/h 58% 0.00in /  0mm 595 W/m2
10:00 68.5 °F /  20.3 °C 52.2 °F /  11.2 °C 30.08in /  1018.5hPa NW 1mph /  1.6km/h 4mph /  6.4km/h 56% 0.00in /  0mm 617 W/m2
10:10 70.3 °F /  21.3 °C 52.3 °F /  11.3 °C 30.07in /  1018.2hPa SW 2mph /  3.2km/h 5mph /  8km/h 53% 0.00in /  0mm 638 W/m2
10:20 71.5 °F /  21.9 °C 53 °F /  11.7 °C 30.07in /  1018.2hPa SW 1mph /  1.6km/h 2mph /  3.2km/h 52% 0.00in /  0mm 658 W/m2
10:30 73 °F /  22.8 °C 53.2 °F /  11.8 °C 30.06in /  1017.8hPa ESE 3mph /  4.8km/h 5mph /  8km/h 50% 0.00in /  0mm 676 W/m2
10:40 73.9 °F /  23.3 °C 54.1 °F /  12.3 °C 30.06in /  1017.8hPa South 1mph /  1.6km/h 5mph /  8km/h 50% 0.00in /  0mm 693 W/m2
10:50 75 °F /  23.9 °C 53.4 °F /  11.9 °C 30.06in /  1017.8hPa NNE 1mph /  1.6km/h 4mph /  6.4km/h 47% 0.00in /  0mm 677 W/m2
11:00 76 °F /  24.4 °C 54.9 °F /  12.7 °C 30.06in /  1017.8hPa NE 2mph /  3.2km/h 4mph /  6.4km/h 48% 0.00in /  0mm 723 W/m2
11:10 77.3 °F /  25.2 °C 53.7 °F /  12.1 °C 30.05in /  1017.5hPa ENE 3mph /  4.8km/h 6mph /  9.7km/h 44% 0.00in /  0mm 553 W/m2
11:20 78.2 °F /  25.7 °C 53.9 °F /  12.2 °C 30.05in /  1017.5hPa ESE 3mph /  4.8km/h 6mph /  9.7km/h 43% 0.00in /  0mm 220 W/m2
11:30 79 °F /  26.1 °C 53.3 °F /  11.8 °C 30.05in /  1017.5hPa SSE 1mph /  1.6km/h 6mph /  9.7km/h 41% 0.00in /  0mm 350 W/m2
11:40 79.9 °F /  26.6 °C 53.4 °F /  11.9 °C 30.04in /  1017.2hPa North 2mph /  3.2km/h 6mph /  9.7km/h 40% 0.00in /  0mm 760 W/m2
11:50 80.9 °F /  27.2 °C 54.3 °F /  12.4 °C 30.04in /  1017.2hPa South 2mph /  3.2km/h 4mph /  6.4km/h 40% 0.00in /  0mm 771 W/m2
12:00 81.7 °F /  27.6 °C 53.6 °F /  12 °C 30.04in /  1017.2hPa SSE 1mph /  1.6km/h 5mph /  8km/h 38% 0.00in /  0mm 776 W/m2
12:10 82.2 °F /  27.9 °C 53.3 °F /  11.8 °C 30.04in /  1017.2hPa NNE 1mph /  1.6km/h 8mph /  12.9km/h 37% 0.00in /  0mm 779 W/m2
12:20 82.4 °F /  28 °C 52.8 °F /  11.6 °C 30.03in /  1016.8hPa NE 1mph /  1.6km/h 8mph /  12.9km/h 36% 0.00in /  0mm 781 W/m2
12:30 82.9 °F /  28.3 °C 52.5 °F /  11.4 °C 30.03in /  1016.8hPa NNE 3mph /  4.8km/h 10mph /  16.1km/h 35% 0.00in /  0mm 781 W/m2
12:40 83.8 °F /  28.8 °C 53.2 °F /  11.8 °C 30.02in /  1016.5hPa ENE 2mph /  3.2km/h 9mph /  14.5km/h 35% 0.00in /  0mm 779 W/m2
12:50 84.4 °F /  29.1 °C 52.9 °F /  11.6 °C 30.02in /  1016.5hPa ENE 3mph /  4.8km/h 7mph /  11.3km/h 34% 0.00in /  0mm 776 W/m2
13:00 84.9 °F /  29.4 °C 53.4 °F /  11.9 °C 30.02in /  1016.5hPa NNE 5mph /  8km/h 8mph /  12.9km/h 34% 0.00in /  0mm 771 W/m2
13:10 85.5 °F /  29.7 °C 53.9 °F /  12.2 °C 30.02in /  1016.5hPa NNE 5mph /  8km/h 14mph /  22.5km/h 34% 0.00in /  0mm 764 W/m2
13:20 85.5 °F /  29.7 °C 53.9 °F /  12.2 °C 30.01in /  1016.1hPa North 8mph /  12.9km/h 12mph /  19.3km/h 34% 0.00in /  0mm 756 W/m2
13:30 85.8 °F /  29.9 °C 54.2 °F /  12.3 °C 30.01in /  1016.1hPa North 3mph /  4.8km/h 14mph /  22.5km/h 34% 0.00in /  0mm 747 W/m2
13:40 86.2 °F /  30.1 °C 53.7 °F /  12.1 °C 30.01in /  1016.1hPa North 5mph /  8km/h 11mph /  17.7km/h 33% 0.00in /  0mm 735 W/m2
13:50 86 °F /  30 °C 53.5 °F /  11.9 °C 30.00in /  1015.8hPa NNW 3mph /  4.8km/h 13mph /  20.9km/h 33% 0.00in /  0mm 723 W/m2
14:00 86 °F /  30 °C 53.5 °F /  11.9 °C 30.00in /  1015.8hPa NNW 2mph /  3.2km/h 13mph /  20.9km/h 33% 0.00in /  0mm 708 W/m2
14:10 86.2 °F /  30.1 °C 53.7 °F /  12.1 °C 30.00in /  1015.8hPa North 3mph /  4.8km/h 13mph /  20.9km/h 33% 0.00in /  0mm 692 W/m2
14:20 86.2 °F /  30.1 °C 53.7 °F /  12.1 °C 29.99in /  1015.5hPa NNW 3mph /  4.8km/h 9mph /  14.5km/h 33% 0.00in /  0mm 675 W/m2
14:30 86.4 °F /  30.2 °C 53.9 °F /  12.2 °C 29.99in /  1015.5hPa NNE 5mph /  8km/h 10mph /  16.1km/h 33% 0.00in /  0mm 657 W/m2
14:40 86.5 °F /  30.3 °C 54 °F /  12.2 °C 29.99in /  1015.5hPa North 5mph /  8km/h 12mph /  19.3km/h 33% 0.00in /  0mm 597 W/m2
14:50 86.5 °F /  30.3 °C 54 °F /  12.2 °C 29.99in /  1015.5hPa North 7mph /  11.3km/h 12mph /  19.3km/h 33% 0.00in /  0mm 616 W/m2
15:00 86.7 °F /  30.4 °C 54.2 °F /  12.3 °C 29.99in /  1015.5hPa NNW 3mph /  4.8km/h 10mph /  16.1km/h 33% 0.00in /  0mm 412 W/m2
15:10 86.7 °F /  30.4 °C 54.2 °F /  12.3 °C 29.99in /  1015.5hPa North 3mph /  4.8km/h 10mph /  16.1km/h 33% 0.00in /  0mm 570 W/m2
15:20 86.5 °F /  30.3 °C 54 °F /  12.2 °C 29.99in /  1015.5hPa NNE 1mph /  1.6km/h 9mph /  14.5km/h 33% 0.00in /  0mm 545 W/m2
15:30 86.7 °F /  30.4 °C 54.2 °F /  12.3 °C 29.99in /  1015.5hPa North 1mph /  1.6km/h 8mph /  12.9km/h 33% 0.00in /  0mm 520 W/m2
15:40 86.7 °F /  30.4 °C 54.2 °F /  12.3 °C 29.98in /  1015.1hPa North 2mph /  3.2km/h 11mph /  17.7km/h 33% 0.00in /  0mm 494 W/m2
15:50 86.7 °F /  30.4 °C 54.2 °F /  12.3 °C 29.98in /  1015.1hPa NNE 1mph /  1.6km/h 9mph /  14.5km/h 33% 0.00in /  0mm 466 W/m2
16:00 86.4 °F /  30.2 °C 53.9 °F /  12.2 °C 29.98in /  1015.1hPa North 6mph /  9.7km/h 11mph /  17.7km/h 33% 0.00in /  0mm 438 W/m2
16:10 86.2 °F /  30.1 °C 53.7 °F /  12.1 °C 29.98in /  1015.1hPa North 5mph /  8km/h 10mph /  16.1km/h 33% 0.00in /  0mm 409 W/m2
16:20 86 °F /  30 °C 53.5 °F /  11.9 °C 29.98in /  1015.1hPa Calm   10mph /  16.1km/h 33% 0.00in /  0mm 380 W/m2
16:30 85.6 °F /  29.8 °C 54 °F /  12.2 °C 29.98in /  1015.1hPa NNW 2mph /  3.2km/h 8mph /  12.9km/h 34% 0.00in /  0mm 350 W/m2
16:50 85.1 °F /  29.5 °C 53.6 °F /  12 °C 29.98in /  1015.1hPa North 2mph /  3.2km/h 9mph /  14.5km/h 34% 0.00in /  0mm 261 W/m2
17:00 84.7 °F /  29.3 °C 52.4 °F /  11.3 °C 29.98in /  1015.1hPa North 2mph /  3.2km/h 6mph /  9.7km/h 33% 0.00in /  0mm 251 W/m2
17:10 84.4 °F /  29.1 °C 52.9 °F /  11.6 °C 29.98in /  1015.1hPa North 2mph /  3.2km/h 6mph /  9.7km/h 34% 0.00in /  0mm 219 W/m2
17:20 84 °F /  28.9 °C 52.6 °F /  11.4 °C 29.98in /  1015.1hPa North 1mph /  1.6km/h 7mph /  11.3km/h 34% 0.00in /  0mm 186 W/m2
17:30 83.5 °F /  28.6 °C 52.2 °F /  11.2 °C 29.98in /  1015.1hPa NNE 1mph /  1.6km/h 6mph /  9.7km/h 34% 0.00in /  0mm 153 W/m2
17:40 83.1 °F /  28.4 °C 52.6 °F /  11.4 °C 29.98in /  1015.1hPa NNE 2mph /  3.2km/h 5mph /  8km/h 35% 0.00in /  0mm 96 W/m2
17:50 82.3 °F /  27.9 °C 51.9 °F /  11.1 °C 29.98in /  1015.1hPa NNE 1mph /  1.6km/h 7mph /  11.3km/h 35% 0.00in /  0mm 95 W/m2
18:00 81.5 °F /  27.5 °C 52.7 °F /  11.5 °C 29.98in /  1015.1hPa NNW 1mph /  1.6km/h 7mph /  11.3km/h 37% 0.00in /  0mm 51 W/m2
18:10 80.6 °F /  27 °C 52 °F /  11.1 °C 29.98in /  1015.1hPa WSW 1mph /  1.6km/h 5mph /  8km/h 37% 0.00in /  0mm 35 W/m2
18:20 79.7 °F /  26.5 °C 51.8 °F /  11 °C 29.98in /  1015.1hPa Calm   4mph /  6.4km/h 38% 0.00in /  0mm 26 W/m2
18:30 78.8 °F /  26 °C 51.7 °F /  10.9 °C 29.98in /  1015.1hPa Calm   5mph /  8km/h 39% 0.00in /  0mm 17 W/m2
18:40 77.8 °F /  25.4 °C 51.5 °F /  10.8 °C 29.98in /  1015.1hPa NNW 1mph /  1.6km/h 3mph /  4.8km/h 40% 0.00in /  0mm 4 W/m2
18:50 76.6 °F /  24.8 °C 51.8 °F /  11 °C 29.99in /  1015.5hPa Calm   2mph /  3.2km/h 42% 0.00in /  0mm 0 W/m2
19:00 75.2 °F /  24 °C 51.2 °F /  10.7 °C 29.99in /  1015.5hPa North 1mph /  1.6km/h 3mph /  4.8km/h 43% 0.00in /  0mm 0 W/m2
19:10 74.3 °F /  23.5 °C 51 °F /  10.6 °C 29.99in /  1015.5hPa Calm   2mph /  3.2km/h 44% 0.00in /  0mm 0 W/m2
19:20 73.4 °F /  23 °C 50.8 °F /  10.4 °C 29.99in /  1015.5hPa SSW 1mph /  1.6km/h 2mph /  3.2km/h 45% 0.00in /  0mm 0 W/m2
19:30 72.4 °F /  22.4 °C 51 °F /  10.6 °C 29.99in /  1015.5hPa WSW 2mph /  3.2km/h 3mph /  4.8km/h 47% 0.00in /  0mm 0 W/m2
19:40 71.2 °F /  21.8 °C 50.5 °F /  10.3 °C 30.00in /  1015.8hPa West 2mph /  3.2km/h 2mph /  3.2km/h 48% 0.00in /  0mm 0 W/m2
19:50 70.2 °F /  21.2 °C 50.7 °F /  10.4 °C 30.00in /  1015.8hPa WSW 2mph /  3.2km/h 4mph /  6.4km/h 50% 0.00in /  0mm 0 W/m2
20:00 69.1 °F /  20.6 °C 50.7 °F /  10.4 °C 30.00in /  1015.8hPa WSW 3mph /  4.8km/h 4mph /  6.4km/h 52% 0.00in /  0mm 0 W/m2
20:10 67.9 °F /  19.9 °C 50.1 °F /  10.1 °C 30.00in /  1015.8hPa West 3mph /  4.8km/h 5mph /  8km/h 53% 0.00in /  0mm 0 W/m2
20:20 67 °F /  19.4 °C 49.8 °F /  9.9 °C 30.01in /  1016.1hPa WNW 2mph /  3.2km/h 5mph /  8km/h 54% 0.00in /  0mm 0 W/m2
20:30 66.4 °F /  19.1 °C 49.2 °F /  9.6 °C 30.01in /  1016.1hPa WNW 2mph /  3.2km/h 5mph /  8km/h 54% 0.00in /  0mm 0 W/m2
20:40 65.8 °F /  18.8 °C 49.2 °F /  9.6 °C 30.01in /  1016.1hPa West 2mph /  3.2km/h 4mph /  6.4km/h 55% 0.00in /  0mm 0 W/m2
20:50 65.1 °F /  18.4 °C 49.5 °F /  9.7 °C 30.02in /  1016.5hPa WSW 2mph /  3.2km/h 3mph /  4.8km/h 57% 0.00in /  0mm 0 W/m2
21:00 64.3 °F /  17.9 °C 49.2 °F /  9.6 °C 30.02in /  1016.5hPa WSW 2mph /  3.2km/h 3mph /  4.8km/h 58% 0.00in /  0mm 0 W/m2
21:10 63.7 °F /  17.6 °C 48.6 °F /  9.2 °C 30.02in /  1016.5hPa Calm   4mph /  6.4km/h 58% 0.00in /  0mm 0 W/m2
21:20 63.1 °F /  17.3 °C 48.6 °F /  9.2 °C 30.02in /  1016.5hPa WNW 2mph /  3.2km/h 5mph /  8km/h 59% 0.00in /  0mm 0 W/m2
21:30 62.4 °F /  16.9 °C 48.3 °F /  9.1 °C 30.03in /  1016.8hPa West 1mph /  1.6km/h 4mph /  6.4km/h 60% 0.00in /  0mm 0 W/m2
21:40 61.9 °F /  16.6 °C 47.8 °F /  8.8 °C 30.03in /  1016.8hPa Calm   2mph /  3.2km/h 60% 0.00in /  0mm 0 W/m2
21:50 61.4 °F /  16.3 °C 48.2 °F /  9 °C 30.03in /  1016.8hPa Calm   1mph /  1.6km/h 62% 0.00in /  0mm 0 W/m2
22:00 61 °F /  16.1 °C 48.3 °F /  9.1 °C 30.03in /  1016.8hPa SW 1mph /  1.6km/h 5mph /  8km/h 63% 0.00in /  0mm 0 W/m2
22:10 60.8 °F /  16 °C 48.1 °F /  8.9 °C 30.04in /  1017.2hPa Calm   4mph /  6.4km/h 63% 0.00in /  0mm 0 W/m2
22:20 60.6 °F /  15.9 °C 47.9 °F /  8.8 °C 30.04in /  1017.2hPa Calm   2mph /  3.2km/h 63% 0.00in /  0mm 0 W/m2
22:30 60.3 °F /  15.7 °C 48 °F /  8.9 °C 30.04in /  1017.2hPa NW 1mph /  1.6km/h 2mph /  3.2km/h 64% 0.00in /  0mm 0 W/m2
22:40 59.9 °F /  15.5 °C 47.7 °F /  8.7 °C 30.04in /  1017.2hPa West 1mph /  1.6km/h 3mph /  4.8km/h 64% 0.00in /  0mm 0 W/m2
22:50 59.7 °F /  15.4 °C 47.5 °F /  8.6 °C 30.04in /  1017.2hPa Calm   3mph /  4.8km/h 64% 0.00in /  0mm 0 W/m2
23:00 59.4 °F /  15.2 °C 47.6 °F /  8.7 °C 30.04in /  1017.2hPa Calm   1mph /  1.6km/h 65% 0.00in /  0mm 0 W/m2
23:10 58.5 °F /  14.7 °C 47.6 °F /  8.7 °C 30.04in /  1017.2hPa Calm   1mph /  1.6km/h 67% 0.00in /  0mm 0 W/m2
23:20 57.9 °F /  14.4 °C 47 °F /  8.3 °C 30.04in /  1017.2hPa Calm   2mph /  3.2km/h 67% 0.00in /  0mm 0 W/m2
23:30 57.4 °F /  14.1 °C 46.9 °F /  8.3 °C 30.04in /  1017.2hPa West 1mph /  1.6km/h 3mph /  4.8km/h 68% 0.00in /  0mm 0 W/m2
23:40 57.2 °F /  14 °C 46.7 °F /  8.2 °C 30.04in /  1017.2hPa WNW 2mph /  3.2km/h 4mph /  6.4km/h 68% 0.00in /  0mm 0 W/m2
23:50 57 °F /  13.9 °C 46.9 °F /  8.3 °C 30.05in /  1017.5hPa NW 1mph /  1.6km/h 3mph /  4.8km/h 69% 0.00in /  0mm 0 W/m2
Knjazevac, Serbia
Compliments of Weather Underground - 2 mb